createdAt,value
2022-08-16T00:02:30.516Z,21.62
2022-08-16T00:04:59.868Z,21.59
2022-08-16T00:07:29.158Z,21.56
2022-08-16T00:09:57.495Z,21.56
2022-08-16T00:12:26.725Z,21.40
2022-08-16T00:14:56.909Z,21.39
2022-08-16T00:17:25.263Z,21.36
2022-08-16T00:19:54.929Z,21.37
2022-08-16T00:22:25.110Z,21.22
2022-08-16T00:24:55.546Z,21.11
2022-08-16T00:27:23.528Z,21.14
2022-08-16T00:30:00.590Z,21.10
2022-08-16T00:32:35.270Z,21.04
2022-08-16T00:35:01.903Z,21.06
2022-08-16T00:37:57.296Z,21.04
2022-08-16T00:40:34.307Z,20.96
2022-08-16T00:43:04.372Z,20.86
2022-08-16T00:45:36.240Z,20.74
2022-08-16T00:48:30.610Z,20.71
2022-08-16T00:50:56.726Z,20.71
2022-08-16T00:53:23.575Z,20.63
2022-08-16T00:55:54.958Z,20.60
2022-08-16T00:58:34.351Z,20.58
2022-08-16T01:01:02.149Z,20.57
2022-08-16T01:03:35.033Z,20.47
2022-08-16T01:06:39.679Z,20.37
2022-08-16T01:08:52.831Z,20.34
2022-08-16T01:11:25.060Z,20.16
2022-08-16T01:13:59.214Z,20.14
2022-08-16T01:16:28.839Z,20.10
2022-08-16T01:19:17.619Z,20.06
2022-08-16T01:21:54.319Z,19.91
2022-08-16T01:24:53.992Z,19.88
2022-08-16T01:27:31.607Z,19.85
2022-08-16T01:30:20.292Z,19.84
2022-08-16T01:33:01.872Z,19.86
2022-08-16T01:35:36.250Z,19.88
2022-08-16T01:38:34.351Z,19.84
2022-08-16T01:41:13.405Z,19.89
2022-08-16T01:43:47.822Z,19.84
2022-08-16T01:46:39.632Z,19.73
2022-08-16T01:49:14.363Z,19.70
2022-08-16T01:51:44.585Z,19.71
2022-08-16T01:54:13.475Z,19.65
2022-08-16T01:56:43.144Z,19.49
2022-08-16T01:59:15.426Z,19.50
2022-08-16T02:01:43.094Z,19.51
2022-08-16T02:04:11.177Z,19.44
2022-08-16T02:06:40.510Z,19.40
2022-08-16T02:09:14.769Z,19.41
2022-08-16T02:11:53.206Z,19.36
2022-08-16T02:14:26.625Z,19.25
2022-08-16T02:16:56.706Z,19.16
2022-08-16T02:19:59.859Z,19.18
2022-08-16T02:22:35.076Z,19.18
2022-08-16T02:25:10.651Z,19.23
2022-08-16T02:27:40.945Z,19.20
2022-08-16T02:30:37.014Z,19.17
2022-08-16T02:33:01.083Z,19.21
2022-08-16T02:35:29.679Z,19.22
2022-08-16T02:37:56.454Z,19.21
2022-08-16T02:40:28.758Z,19.21
2022-08-16T02:42:56.355Z,19.21
2022-08-16T02:45:27.813Z,19.10
2022-08-16T02:48:00.183Z,19.00
2022-08-16T02:50:55.093Z,18.89
2022-08-16T02:53:18.252Z,18.85
2022-08-16T02:55:50.409Z,18.77
2022-08-16T02:58:17.337Z,18.74
2022-08-16T03:00:45.563Z,18.71
2022-08-16T03:03:17.923Z,18.67
2022-08-16T03:05:50.008Z,18.65
2022-08-16T03:08:50.873Z,18.64
2022-08-16T03:11:16.931Z,18.65
2022-08-16T03:13:56.472Z,18.62
2022-08-16T03:16:38.182Z,18.57
2022-08-16T03:19:07.380Z,18.56
2022-08-16T03:21:37.755Z,18.61
2022-08-16T03:24:28.454Z,18.51
2022-08-16T03:26:57.878Z,18.44
2022-08-16T03:29:29.869Z,18.40
2022-08-16T03:31:58.963Z,18.40
2022-08-16T03:34:26.477Z,18.39
2022-08-16T03:36:53.239Z,18.45
2022-08-16T03:39:20.329Z,18.52
2022-08-16T03:41:50.313Z,18.48
2022-08-16T03:44:44.207Z,18.47
2022-08-16T03:47:04.754Z,18.49
2022-08-16T03:49:37.408Z,18.45
2022-08-16T03:52:04.582Z,18.45
2022-08-16T03:54:31.202Z,18.45
2022-08-16T03:56:59.012Z,18.32
2022-08-16T03:59:29.284Z,18.23
2022-08-16T04:01:56.617Z,18.32
2022-08-16T04:04:32.472Z,18.47
2022-08-16T04:07:02.879Z,18.63
2022-08-16T04:09:35.212Z,18.63
2022-08-16T04:12:11.379Z,18.64
2022-08-16T04:14:51.685Z,18.72
2022-08-16T04:17:18.370Z,18.72
2022-08-16T04:19:46.810Z,18.81
2022-08-16T04:22:14.029Z,18.85
2022-08-16T04:24:53.262Z,18.88
2022-08-16T04:27:21.687Z,18.92
2022-08-16T04:29:52.270Z,18.94
2022-08-16T04:32:19.573Z,18.99
2022-08-16T04:34:46.830Z,19.01
2022-08-16T04:37:14.510Z,19.04
2022-08-16T04:39:47.242Z,19.03
2022-08-16T04:42:26.462Z,19.07
2022-08-16T04:44:57.657Z,19.12
2022-08-16T04:47:33.516Z,19.14
2022-08-16T04:50:06.580Z,19.22
2022-08-16T04:52:35.978Z,19.29
2022-08-16T04:55:09.559Z,19.39
2022-08-16T04:57:38.418Z,19.47
2022-08-16T05:00:31.751Z,19.56
2022-08-16T05:02:58.882Z,19.69
2022-08-16T05:05:26.049Z,19.81
2022-08-16T05:08:00.373Z,19.83
2022-08-16T05:10:29.469Z,19.87
2022-08-16T05:12:57.863Z,20.00
2022-08-16T05:15:25.253Z,20.14
2022-08-16T05:17:58.488Z,20.24
2022-08-16T05:20:38.925Z,20.32
2022-08-16T05:23:15.073Z,20.41
2022-08-16T05:25:48.331Z,20.46
2022-08-16T05:28:16.470Z,20.64
2022-08-16T05:30:43.366Z,20.90
2022-08-16T05:33:16.685Z,21.14
2022-08-16T05:35:55.585Z,21.27
2022-08-16T05:38:33.095Z,21.29
2022-08-16T05:41:06.995Z,21.23
2022-08-16T05:43:43.309Z,21.23
2022-08-16T05:46:30.108Z,21.27
2022-08-16T05:49:05.862Z,21.41
2022-08-16T05:51:38.211Z,21.54
2022-08-16T05:54:07.999Z,21.63
2022-08-16T05:56:37.697Z,21.57
2022-08-16T05:59:06.505Z,21.54
2022-08-16T06:01:38.496Z,21.63
2022-08-16T06:04:13.743Z,21.72
2022-08-16T06:06:56.575Z,21.84
2022-08-16T06:09:25.236Z,21.91
2022-08-16T06:11:52.369Z,22.01
2022-08-16T06:14:19.566Z,22.11
2022-08-16T06:16:50.834Z,22.18
2022-08-16T06:19:18.113Z,22.23
2022-08-16T06:21:45.349Z,22.31
2022-08-16T06:24:53.294Z,22.39
2022-08-16T06:26:58.742Z,22.51
2022-08-16T06:29:25.308Z,22.61
2022-08-16T06:31:53.459Z,22.75
2022-08-16T06:34:55.983Z,22.83
2022-08-16T06:37:07.541Z,22.96
2022-08-16T06:39:34.794Z,23.06
2022-08-16T06:42:18.338Z,23.19
2022-08-16T06:44:45.744Z,23.32
2022-08-16T06:47:17.048Z,23.44
2022-08-16T06:49:47.900Z,23.58
2022-08-16T06:53:00.697Z,23.77
2022-08-16T06:55:12.791Z,23.97
2022-08-16T06:57:40.734Z,24.11
2022-08-16T07:00:24.210Z,24.24
2022-08-16T07:02:53.808Z,24.38
2022-08-16T07:05:20.956Z,24.50
2022-08-16T07:07:54.164Z,24.60
2022-08-16T07:10:26.670Z,24.69
2022-08-16T07:13:04.658Z,24.78
2022-08-16T07:15:50.160Z,24.89
2022-08-16T07:18:21.397Z,24.99
2022-08-16T07:20:53.573Z,25.04
2022-08-16T07:23:21.616Z,25.09
2022-08-16T07:26:08.543Z,25.17
2022-08-16T07:28:37.603Z,25.24
2022-08-16T07:31:05.102Z,25.33
2022-08-16T07:33:51.933Z,25.42
2022-08-16T07:36:22.509Z,25.50
2022-08-16T07:38:49.923Z,25.52
2022-08-16T07:41:17.453Z,25.51
2022-08-16T07:43:46.188Z,25.55
2022-08-16T07:46:38.470Z,25.59
2022-08-16T07:49:03.090Z,25.66
2022-08-16T07:51:37.125Z,25.71
2022-08-16T07:54:10.015Z,25.73
2022-08-16T07:56:37.524Z,25.77
2022-08-16T07:59:05.370Z,25.83
2022-08-16T08:01:32.994Z,25.90
2022-08-16T08:04:02.865Z,25.93
2022-08-16T08:06:32.419Z,26.00
2022-08-16T08:09:00.322Z,26.07
2022-08-16T08:11:28.840Z,26.13
2022-08-16T08:14:03.209Z,26.15
2022-08-16T08:16:31.617Z,26.19
2022-08-16T08:19:02.434Z,26.25
2022-08-16T08:22:01.345Z,26.34
2022-08-16T08:24:18.758Z,26.46
2022-08-16T08:26:50.061Z,26.47
2022-08-16T08:29:22.799Z,26.48
2022-08-16T08:31:52.928Z,26.50
2022-08-16T08:34:22.121Z,26.60
2022-08-16T08:36:50.101Z,26.75
2022-08-16T08:39:22.121Z,26.87
2022-08-16T08:41:49.499Z,27.01
2022-08-16T08:44:30.110Z,27.15
2022-08-16T08:47:05.608Z,27.27
2022-08-16T08:49:50.386Z,27.37
2022-08-16T08:52:34.603Z,27.47
2022-08-16T08:55:11.458Z,27.60
2022-08-16T08:57:42.028Z,27.74
2022-08-16T09:00:13.157Z,27.88
2022-08-16T09:02:42.999Z,27.95
2022-08-16T09:05:15.241Z,28.07
2022-08-16T09:07:54.781Z,28.15
2022-08-16T09:10:29.433Z,28.23
2022-08-16T09:12:56.884Z,28.34
2022-08-16T09:15:24.036Z,28.40
2022-08-16T09:17:54.671Z,28.47
2022-08-16T09:20:23.775Z,28.56
2022-08-16T09:22:52.996Z,28.66
2022-08-16T09:25:26.234Z,28.81
2022-08-16T09:28:02.794Z,28.94
2022-08-16T09:30:43.846Z,29.07
2022-08-16T09:33:13.624Z,29.20
2022-08-16T09:35:42.456Z,29.36
2022-08-16T09:38:12.310Z,29.53
2022-08-16T09:40:42.497Z,29.64
2022-08-16T09:43:37.647Z,29.77
2022-08-16T09:46:44.848Z,29.95
2022-08-16T09:48:56.395Z,30.16
2022-08-16T09:51:26.257Z,30.39
2022-08-16T09:53:57.701Z,30.58
2022-08-16T09:56:31.691Z,30.74
2022-08-16T09:59:05.270Z,30.86
2022-08-16T10:01:36.684Z,31.02
2022-08-16T10:04:09.806Z,31.13
2022-08-16T10:06:54.244Z,31.19
2022-08-16T10:09:25.497Z,31.32
2022-08-16T10:12:30.486Z,31.45
2022-08-16T10:14:57.118Z,31.65
2022-08-16T10:17:24.720Z,31.84
2022-08-16T10:19:53.034Z,32.05
2022-08-16T10:22:22.952Z,32.22
2022-08-16T10:24:56.019Z,32.41
2022-08-16T10:27:28.957Z,32.58
2022-08-16T10:30:25.761Z,32.69
2022-08-16T10:32:55.043Z,32.84
2022-08-16T10:35:21.798Z,32.96
2022-08-16T10:37:50.178Z,33.11
2022-08-16T10:40:29.344Z,33.20
2022-08-16T10:42:59.943Z,33.34
2022-08-16T10:45:29.289Z,33.50
2022-08-16T10:48:27.290Z,33.68
2022-08-16T10:50:57.843Z,33.77
2022-08-16T10:53:32.959Z,33.88
2022-08-16T10:56:02.726Z,33.96
2022-08-16T10:58:34.042Z,33.80
2022-08-16T11:01:25.061Z,33.46
2022-08-16T11:03:54.445Z,33.28
2022-08-16T11:06:26.902Z,33.17
2022-08-16T11:14:29.430Z,32.87
2022-08-16T11:17:09.562Z,32.82
2022-08-16T11:20:00.627Z,32.78
2022-08-16T11:22:47.073Z,32.72
2022-08-16T11:25:57.904Z,32.66
2022-08-16T11:28:03.285Z,32.58
2022-08-16T11:30:39.172Z,32.24
2022-08-16T11:33:07.324Z,30.92
2022-08-16T11:38:46.621Z,27.23
2022-08-16T11:41:09.810Z,25.94
2022-08-16T11:43:38.879Z,25.61
2022-08-16T11:46:43.764Z,25.11
2022-08-16T11:48:57.119Z,25.07
2022-08-16T11:51:23.675Z,25.07
2022-08-16T11:53:50.263Z,24.99
2022-08-16T11:56:19.761Z,25.07
2022-08-16T11:58:56.979Z,25.11
2022-08-16T12:01:29.574Z,25.11
2022-08-16T12:04:11.139Z,25.23
2022-08-16T12:06:40.417Z,25.37
2022-08-16T12:09:08.065Z,25.59
2022-08-16T12:11:36.760Z,25.65
2022-08-16T12:14:07.294Z,25.89
2022-08-16T12:16:35.610Z,25.99
2022-08-16T12:19:10.424Z,26.09
2022-08-16T12:21:58.281Z,26.35
2022-08-16T12:24:26.291Z,26.53
2022-08-16T12:26:54.154Z,26.79
2022-08-16T12:29:21.800Z,26.99
2022-08-16T12:32:01.186Z,27.25
2022-08-16T12:34:37.538Z,27.60
2022-08-16T12:37:15.502Z,28.04
2022-08-16T12:39:50.785Z,28.48
2022-08-16T12:42:19.434Z,28.85
2022-08-16T12:44:47.250Z,29.25
2022-08-16T12:47:32.477Z,29.55
2022-08-16T12:49:59.360Z,29.76
2022-08-16T12:52:32.628Z,29.87
2022-08-16T12:55:01.985Z,29.84
2022-08-16T12:57:36.219Z,29.69
2022-08-16T13:00:26.768Z,29.50
2022-08-16T13:03:01.986Z,29.34
2022-08-16T13:05:29.189Z,29.05
2022-08-16T13:07:58.346Z,28.89
2022-08-16T13:10:37.270Z,29.01
2022-08-16T13:13:05.949Z,29.18
2022-08-16T13:15:36.153Z,29.55
2022-08-16T13:18:24.000Z,30.09
2022-08-16T13:20:54.170Z,30.70
2022-08-16T13:23:21.480Z,31.28
2022-08-16T13:25:50.042Z,31.84
2022-08-16T13:28:18.755Z,32.46
2022-08-16T13:30:50.522Z,33.05
2022-08-16T13:33:30.191Z,33.70
2022-08-16T13:36:00.718Z,34.23
2022-08-16T13:38:31.192Z,34.68
2022-08-16T13:40:59.817Z,35.24
2022-08-16T13:43:28.775Z,35.84
2022-08-16T13:45:56.567Z,36.39
2022-08-16T13:48:26.458Z,36.80
2022-08-16T13:51:10.048Z,37.15
2022-08-16T13:53:44.129Z,37.77
2022-08-16T13:56:10.806Z,38.09
2022-08-16T13:58:54.443Z,38.53
2022-08-16T14:01:22.362Z,39.09
2022-08-16T14:03:49.241Z,39.54
2022-08-16T14:06:16.078Z,39.96
2022-08-16T14:08:58.934Z,40.37
2022-08-16T14:11:32.535Z,40.74
2022-08-16T14:13:59.417Z,41.09
2022-08-16T14:16:33.708Z,41.18
2022-08-16T14:19:00.963Z,41.34
2022-08-16T14:21:35.500Z,41.66
2022-08-16T14:24:07.906Z,41.05
2022-08-16T14:26:49.701Z,40.29
2022-08-16T14:31:53.677Z,40.07
2022-08-16T14:34:20.856Z,40.01
2022-08-16T14:36:47.411Z,39.60
2022-08-16T14:39:18.719Z,38.76
2022-08-16T14:41:45.261Z,39.00
2022-08-16T14:44:12.170Z,38.75
2022-08-16T14:46:40.334Z,37.94
2022-08-16T14:49:09.733Z,37.40
2022-08-16T14:51:36.652Z,36.64
2022-08-16T14:54:05.518Z,36.75
2022-08-16T14:56:43.129Z,36.77
2022-08-16T14:59:13.551Z,37.36
2022-08-16T15:01:57.477Z,38.42
2022-08-16T15:04:39.608Z,38.04
2022-08-16T15:07:11.035Z,37.06
2022-08-16T15:09:44.126Z,36.32
2022-08-16T15:12:32.721Z,35.84
2022-08-16T15:15:01.646Z,35.43
2022-08-16T15:17:33.971Z,35.08
2022-08-16T15:20:09.216Z,34.65
2022-08-16T15:22:42.900Z,34.31
2022-08-16T15:25:21.819Z,34.11
2022-08-16T15:27:55.448Z,34.73
2022-08-16T15:30:58.089Z,36.34
2022-08-16T15:33:15.236Z,36.83
2022-08-16T15:35:43.479Z,35.43
2022-08-16T15:38:10.783Z,35.72
2022-08-16T15:40:59.015Z,37.91
2022-08-16T15:43:33.935Z,36.45
2022-08-16T15:46:35.502Z,38.13
2022-08-16T15:49:13.314Z,39.47
2022-08-16T15:51:41.291Z,38.91
2022-08-16T15:54:16.235Z,38.91
2022-08-16T15:57:00.217Z,40.45
2022-08-16T15:59:47.939Z,40.81
2022-08-16T16:02:27.218Z,40.73
2022-08-16T16:04:54.526Z,39.93
2022-08-16T16:07:22.202Z,37.60
2022-08-16T16:09:48.931Z,36.63
2022-08-16T16:12:50.238Z,35.73
2022-08-16T16:15:06.520Z,35.03
2022-08-16T16:17:35.494Z,34.55
2022-08-16T16:20:13.768Z,34.15
2022-08-16T16:22:43.474Z,33.79
2022-08-16T16:25:12.538Z,33.24
2022-08-16T16:27:39.462Z,32.98
2022-08-16T16:30:11.268Z,32.74
2022-08-16T16:32:58.255Z,32.10
2022-08-16T16:35:32.768Z,31.77
2022-08-16T16:38:00.148Z,31.44
2022-08-16T16:40:32.217Z,31.56
2022-08-16T16:43:00.057Z,31.86
2022-08-16T16:45:33.490Z,32.10
2022-08-16T16:48:11.702Z,32.18
2022-08-16T16:50:44.490Z,32.03
2022-08-16T16:53:16.732Z,32.25
2022-08-16T16:55:47.719Z,32.50
2022-08-16T16:58:43.411Z,32.80
2022-08-16T17:01:10.819Z,33.02
2022-08-16T17:03:38.630Z,32.92
2022-08-16T17:06:09.347Z,32.85
2022-08-16T17:08:40.943Z,32.81
2022-08-16T17:11:09.739Z,32.51
2022-08-16T17:13:37.019Z,32.34
2022-08-16T17:16:04.978Z,32.21
2022-08-16T17:19:14.570Z,32.00
2022-08-16T17:21:18.677Z,31.73
2022-08-16T17:23:58.922Z,31.52
2022-08-16T17:26:33.965Z,31.45
2022-08-16T17:29:02.117Z,31.29
2022-08-16T17:31:40.632Z,31.20
2022-08-16T17:34:30.764Z,31.05
2022-08-16T17:36:54.730Z,30.85
2022-08-16T17:39:21.570Z,30.59
2022-08-16T17:41:51.110Z,30.58
2022-08-16T17:44:19.310Z,30.35
2022-08-16T17:46:50.939Z,29.99
2022-08-16T17:49:18.575Z,29.94
2022-08-16T17:51:45.080Z,29.93
2022-08-16T17:54:18.320Z,29.70
2022-08-16T17:56:56.842Z,29.71
2022-08-16T17:59:24.232Z,29.69
2022-08-16T18:01:50.846Z,29.60
2022-08-16T18:04:48.647Z,29.50
2022-08-16T18:07:05.299Z,29.43
2022-08-16T18:09:31.894Z,29.40
2022-08-16T18:11:58.673Z,29.23
2022-08-16T18:14:52.191Z,28.99
2022-08-16T18:17:12.967Z,28.92
2022-08-16T18:19:39.559Z,28.75
2022-08-16T18:22:18.227Z,28.60
2022-08-16T18:24:49.579Z,28.36
2022-08-16T18:27:26.589Z,28.35
2022-08-16T18:29:54.108Z,28.34
2022-08-16T18:32:24.912Z,28.21
2022-08-16T18:34:54.512Z,28.05
2022-08-16T18:37:24.586Z,27.81
2022-08-16T18:39:51.156Z,27.70
2022-08-16T18:42:17.948Z,27.58
2022-08-16T18:44:44.799Z,27.64
2022-08-16T18:47:11.419Z,27.47
2022-08-16T18:49:38.336Z,27.46
2022-08-16T18:52:05.589Z,27.26
2022-08-16T18:54:33.388Z,27.19
2022-08-16T18:57:03.395Z,27.14
2022-08-16T18:59:33.210Z,26.97
2022-08-16T19:02:05.145Z,26.88
2022-08-16T19:04:48.045Z,26.79
2022-08-16T19:07:30.527Z,26.66
2022-08-16T19:09:59.584Z,26.46
2022-08-16T19:12:37.781Z,26.24
2022-08-16T19:15:13.280Z,26.17
2022-08-16T19:17:40.203Z,25.82
2022-08-16T19:20:10.781Z,25.79
2022-08-16T19:23:01.475Z,25.66
2022-08-16T19:25:46.409Z,25.53
2022-08-16T19:28:45.902Z,25.46
2022-08-16T19:31:00.090Z,25.47
2022-08-16T19:33:26.640Z,25.27
2022-08-16T19:35:53.224Z,25.04
2022-08-16T19:38:19.944Z,25.07
2022-08-16T19:40:46.765Z,25.08
2022-08-16T19:43:13.346Z,24.92
2022-08-16T19:45:45.358Z,24.71
2022-08-16T19:48:12.764Z,24.56
2022-08-16T19:50:39.835Z,24.50
2022-08-16T19:53:13.116Z,24.36
2022-08-16T19:55:45.800Z,24.23
2022-08-16T19:58:15.456Z,24.06
2022-08-16T20:00:43.324Z,24.12
2022-08-16T20:03:15.231Z,24.12
2022-08-16T20:05:43.598Z,24.02
2022-08-16T20:08:11.353Z,23.99
2022-08-16T20:10:39.503Z,23.95
2022-08-16T20:13:20.982Z,23.93
2022-08-16T20:15:48.842Z,23.90
2022-08-16T20:18:21.311Z,23.91
2022-08-16T20:20:52.874Z,23.89
2022-08-16T20:23:24.788Z,23.88
2022-08-16T20:25:55.847Z,23.87
2022-08-16T20:28:51.822Z,23.87
2022-08-16T20:31:11.471Z,23.84
2022-08-16T20:33:38.112Z,23.85
2022-08-16T20:36:04.808Z,23.78
2022-08-16T20:38:31.477Z,23.74
2022-08-16T20:40:58.015Z,23.68
2022-08-16T20:43:24.561Z,23.64
2022-08-16T20:45:51.084Z,23.58
2022-08-16T20:48:17.619Z,23.48
2022-08-16T20:50:45.059Z,23.44
2022-08-16T20:53:11.940Z,23.36
2022-08-16T20:55:40.097Z,23.35
2022-08-16T20:58:06.659Z,23.32
2022-08-16T21:00:33.653Z,23.26
2022-08-16T21:03:01.560Z,23.20
2022-08-16T21:05:31.152Z,23.16
2022-08-16T21:07:58.598Z,23.10
2022-08-16T21:10:25.179Z,23.09
2022-08-16T21:12:57.910Z,23.07
2022-08-16T21:15:26.735Z,23.07
2022-08-16T21:17:53.786Z,23.04
2022-08-16T21:20:22.699Z,22.99
2022-08-16T21:22:55.276Z,22.90
2022-08-16T21:25:23.497Z,22.84
2022-08-16T21:28:39.523Z,22.81
2022-08-16T21:30:39.471Z,22.80
2022-08-16T21:33:12.360Z,22.75
2022-08-16T21:35:41.007Z,22.71
2022-08-16T21:38:28.665Z,22.70
2022-08-16T21:40:54.267Z,22.70
2022-08-16T21:43:22.902Z,22.69
2022-08-16T21:45:54.855Z,22.67
2022-08-16T21:48:32.645Z,22.64
2022-08-16T21:51:06.794Z,22.58
2022-08-16T21:53:33.771Z,22.53
2022-08-16T21:56:00.914Z,22.43
2022-08-16T21:58:28.593Z,22.34
2022-08-16T22:00:55.908Z,22.30
2022-08-16T22:03:23.502Z,22.22
2022-08-16T22:06:12.154Z,22.15
2022-08-16T22:08:39.509Z,21.95
2022-08-16T22:11:15.427Z,21.85
2022-08-16T22:13:41.993Z,21.78
2022-08-16T22:16:15.815Z,21.63
2022-08-16T22:18:42.314Z,21.49
2022-08-16T22:21:18.873Z,21.43
2022-08-16T22:23:45.432Z,21.32
2022-08-16T22:26:29.943Z,21.32
2022-08-16T22:29:01.926Z,21.22
2022-08-16T22:31:28.822Z,21.17
2022-08-16T22:33:58.609Z,21.10
2022-08-16T22:36:28.602Z,21.13
2022-08-16T22:39:00.625Z,21.13
2022-08-16T22:41:28.646Z,21.02
2022-08-16T22:43:55.663Z,20.96
2022-08-16T22:46:22.549Z,20.90
2022-08-16T22:48:52.210Z,20.80
2022-08-16T22:51:20.844Z,20.79
2022-08-16T22:53:47.640Z,20.72
2022-08-16T22:56:15.705Z,20.70
2022-08-16T22:58:42.442Z,20.62
2022-08-16T23:01:10.455Z,20.55
2022-08-16T23:03:37.774Z,20.52
2022-08-16T23:06:05.353Z,20.50
2022-08-16T23:08:39.859Z,20.45
2022-08-16T23:11:13.448Z,20.42
2022-08-16T23:13:50.710Z,20.35
2022-08-16T23:16:24.862Z,20.19
2022-08-16T23:18:59.503Z,20.08
2022-08-16T23:21:26.499Z,20.03
2022-08-16T23:23:53.981Z,19.99
2022-08-16T23:26:45.206Z,19.93
2022-08-16T23:29:07.600Z,19.72
2022-08-16T23:31:49.166Z,19.62
2022-08-16T23:34:16.066Z,19.60
2022-08-16T23:36:42.591Z,19.61
2022-08-16T23:39:09.182Z,19.66
2022-08-16T23:41:35.780Z,19.69
2022-08-16T23:44:02.419Z,19.70
2022-08-16T23:46:49.427Z,19.75
2022-08-16T23:49:58.438Z,19.76
2022-08-16T23:52:09.902Z,19.75
2022-08-16T23:54:36.568Z,19.78
2022-08-16T23:57:03.361Z,19.82
2022-08-16T23:59:29.932Z,19.82
